Time,TemperatureF,DewpointF,PressureIn,WindDirection,WindDirectionDegrees,WindSpeedMPH,WindSpeedGustMPH,Humidity,HourlyPrecipIn,Conditions,Clouds,dailyrainin,SoftwareType,DateUTC
2013-04-07 00:00:00,44.2,33.6,30.26,SSE,157,1.0,1.0,66,0.00,,,0.00,Wunderground v.1.12,2013-04-07 04:00:00,
2013-04-07 00:10:00,44.1,33.1,30.26,SSE,165,3.0,3.0,65,0.00,,,0.00,Wunderground v.1.12,2013-04-07 04:10:00,
2013-04-07 00:20:00,43.9,33.6,30.26,South,180,1.0,1.0,67,0.00,,,0.00,Wunderground v.1.12,2013-04-07 04:20:00,
2013-04-07 00:30:00,43.8,33.6,30.26,SSE,150,2.0,2.0,67,0.00,,,0.00,Wunderground v.1.12,2013-04-07 04:30:00,
2013-04-07 00:40:00,43.6,33.0,30.26,South,178,2.0,2.0,66,0.00,,,0.00,Wunderground v.1.12,2013-04-07 04:40:00,
2013-04-07 00:50:00,43.6,32.6,30.26,SSE,150,1.0,1.0,65,0.00,,,0.00,Wunderground v.1.12,2013-04-07 04:50:00,
2013-04-07 01:00:00,43.6,33.4,30.25,SSE,167,1.0,4.0,67,0.00,,,0.00,Wunderground v.1.12,2013-04-07 05:00:00,
2013-04-07 01:10:00,43.6,33.4,30.25,SSE,166,1.0,1.0,67,0.00,,,0.00,Wunderground v.1.12,2013-04-07 05:10:00,
2013-04-07 01:20:00,43.6,34.1,30.25,SSE,165,1.0,10.0,69,0.00,,,0.00,Wunderground v.1.12,2013-04-07 05:20:00,
2013-04-07 01:30:00,43.6,34.5,30.25,SSE,167,2.0,2.0,70,0.00,,,0.00,Wunderground v.1.12,2013-04-07 05:30:00,
2013-04-07 01:40:00,43.6,34.5,30.25,South,170,1.0,10.0,70,0.00,,,0.00,Wunderground v.1.12,2013-04-07 05:40:00,
2013-04-07 01:50:00,43.6,34.8,30.25,South,172,2.0,10.0,71,0.00,,,0.00,Wunderground v.1.12,2013-04-07 05:50:00,
2013-04-07 02:00:00,43.6,34.8,30.24,SE,140,1.0,10.0,71,0.00,,,0.00,Wunderground v.1.12,2013-04-07 06:00:00,
2013-04-07 02:10:00,43.6,35.5,30.23,SSE,156,1.0,10.0,73,0.00,,,0.00,Wunderground v.1.12,2013-04-07 06:10:00,
2013-04-07 02:20:00,43.6,36.2,30.23,South,173,1.0,1.0,75,0.00,,,0.00,Wunderground v.1.12,2013-04-07 06:20:00,
2013-04-07 02:30:00,43.6,36.5,30.23,SE,138,2.0,10.0,76,0.00,,,0.00,Wunderground v.1.12,2013-04-07 06:30:00,
2013-04-07 02:40:00,43.6,37.2,30.22,SE,137,1.0,10.0,78,0.00,,,0.00,Wunderground v.1.12,2013-04-07 06:40:00,
2013-04-07 02:50:00,43.6,37.2,30.22,SSE,153,2.0,2.0,78,0.00,,,0.00,Wunderground v.1.12,2013-04-07 06:50:00,
2013-04-07 03:00:00,43.6,37.2,30.22,SE,130,3.0,3.0,78,0.00,,,0.00,Wunderground v.1.12,2013-04-07 07:00:00,
2013-04-07 03:10:00,43.5,37.4,30.22,South,185,1.0,1.0,79,0.00,,,0.00,Wunderground v.1.12,2013-04-07 07:10:00,
2013-04-07 03:20:00,-999.9,-99.9,30.22,North,32767,-999.0,10.0,255,-99.99,,,0.00,Wunderground v.1.12,2013-04-07 07:20:00,
2013-04-07 03:30:00,-999.9,-99.9,30.22,North,32767,-999.0,10.0,255,-99.99,,,0.00,Wunderground v.1.12,2013-04-07 07:30:00,
2013-04-07 03:40:00,-999.9,-99.9,30.21,North,32767,-999.0,10.0,255,-99.99,,,0.00,Wunderground v.1.12,2013-04-07 07:40:00,
2013-04-07 03:50:00,-999.9,-99.9,30.21,North,32767,-999.0,10.0,255,-99.99,,,0.00,Wunderground v.1.12,2013-04-07 07:50:00,
2013-04-07 04:00:00,-999.9,-99.9,30.21,North,32767,-999.0,10.0,255,-99.99,,,0.00,Wunderground v.1.12,2013-04-07 08:00:00,
2013-04-07 04:10:00,-999.9,-99.9,30.21,North,32767,-999.0,10.0,255,-99.99,,,0.00,Wunderground v.1.12,2013-04-07 08:10:00,
2013-04-07 04:20:00,-999.9,-99.9,30.21,North,32767,-999.0,10.0,255,-99.99,,,0.00,Wunderground v.1.12,2013-04-07 08:20:00,
2013-04-07 04:30:00,-999.9,-99.9,30.22,North,32767,-999.0,10.0,255,-99.99,,,0.00,Wunderground v.1.12,2013-04-07 08:30:00,
2013-04-07 04:40:00,-999.9,-99.9,30.22,North,32767,-999.0,10.0,255,-99.99,,,0.00,Wunderground v.1.12,2013-04-07 08:40:00,
2013-04-07 04:50:00,-999.9,-99.9,30.22,North,32767,-999.0,10.0,255,-99.99,,,0.00,Wunderground v.1.12,2013-04-07 08:50:00,
2013-04-07 05:00:00,-999.9,-99.9,30.23,North,32767,-999.0,10.0,255,-99.99,,,0.00,Wunderground v.1.12,2013-04-07 09:00:00,
2013-04-07 05:10:00,-999.9,-99.9,30.22,North,32767,-999.0,10.0,255,-99.99,,,0.00,Wunderground v.1.12,2013-04-07 09:10:00,
2013-04-07 05:20:00,-999.9,-99.9,30.22,North,32767,-999.0,10.0,255,-99.99,,,0.00,Wunderground v.1.12,2013-04-07 09:20:00,
2013-04-07 05:30:00,-999.9,-99.9,30.23,North,32767,-999.0,10.0,255,-99.99,,,0.00,Wunderground v.1.12,2013-04-07 09:30:00,
2013-04-07 05:40:00,-999.9,-99.9,30.23,North,32767,-999.0,10.0,255,-99.99,,,0.00,Wunderground v.1.12,2013-04-07 09:40:00,
2013-04-07 06:00:00,-999.9,-99.9,30.22,North,32767,-999.0,10.0,255,-99.99,,,0.00,Wunderground v.1.12,2013-04-07 10:00:00,
2013-04-07 06:10:00,-999.9,-99.9,30.22,North,32767,-999.0,0.0,255,-99.99,,,0.00,Wunderground v.1.12,2013-04-07 10:10:00,
2013-04-07 06:20:00,-999.9,-99.9,30.22,North,32767,-999.0,0.0,255,-99.99,,,0.00,Wunderground v.1.12,2013-04-07 10:20:00,
2013-04-07 06:30:00,-999.9,-99.9,30.22,North,32767,-999.0,0.0,255,-99.99,,,0.00,Wunderground v.1.12,2013-04-07 10:30:00,
2013-04-07 06:40:00,-999.9,-99.9,30.22,North,32767,-999.0,0.0,255,-99.99,,,0.00,Wunderground v.1.12,2013-04-07 10:40:00,
2013-04-07 06:50:00,-999.9,-99.9,30.22,North,32767,-999.0,0.0,255,-99.99,,,0.00,Wunderground v.1.12,2013-04-07 10:50:00,
2013-04-07 07:00:00,-999.9,-99.9,30.23,North,32767,-999.0,0.0,255,-99.99,,,0.00,Wunderground v.1.12,2013-04-07 11:00:00,
2013-04-07 07:10:00,-999.9,-99.9,30.23,North,32767,-999.0,0.0,255,-99.99,,,0.00,Wunderground v.1.12,2013-04-07 11:10:00,
2013-04-07 07:20:00,-999.9,-99.9,30.23,North,32767,-999.0,0.0,255,-99.99,,,0.00,Wunderground v.1.12,2013-04-07 11:20:00,
2013-04-07 07:30:00,40.8,36.6,30.23,WNW,301,0.0,0.0,85,0.00,,,0.00,Wunderground v.1.12,2013-04-07 11:30:00,
2013-04-07 07:40:00,41.6,36.8,30.23,WNW,301,0.0,0.0,83,0.00,,,0.00,Wunderground v.1.12,2013-04-07 11:40:00,
2013-04-07 07:50:00,41.8,36.7,30.23,SSE,157,0.0,0.0,82,0.00,,,0.00,Wunderground v.1.12,2013-04-07 11:50:00,
2013-04-07 08:00:00,41.8,36.7,30.23,SSE,157,0.0,0.0,82,0.00,,,0.00,Wunderground v.1.12,2013-04-07 12:00:00,
2013-04-07 08:10:00,42.6,37.5,30.23,SSE,155,0.0,0.0,82,0.00,,,0.00,Wunderground v.1.12,2013-04-07 12:10:00,
2013-04-07 08:20:00,44.1,38.3,30.23,South,172,1.0,1.0,80,0.00,,,0.00,Wunderground v.1.12,2013-04-07 12:20:00,
2013-04-07 08:30:00,45.4,38.6,30.22,SSE,162,1.0,2.0,77,0.00,,,0.00,Wunderground v.1.12,2013-04-07 12:30:00,
2013-04-07 08:40:00,46.5,39.0,30.22,SSE,167,0.0,1.0,75,0.00,,,0.00,Wunderground v.1.12,2013-04-07 12:40:00,
2013-04-07 08:50:00,47.9,39.3,30.22,SSE,162,1.0,3.0,72,0.00,,,0.00,Wunderground v.1.12,2013-04-07 12:50:00,
2013-04-07 09:00:00,47.9,39.7,30.21,SE,142,3.0,4.0,73,0.00,,,0.00,Wunderground v.1.12,2013-04-07 13:00:00,
2013-04-07 09:10:00,48.3,39.7,30.20,SE,142,2.0,3.0,72,0.00,,,0.00,Wunderground v.1.12,2013-04-07 13:10:00,
2013-04-07 09:20:00,48.8,40.2,30.20,SSE,165,2.0,2.0,72,0.00,,,0.00,Wunderground v.1.12,2013-04-07 13:20:00,
2013-04-07 09:30:00,49.9,40.5,30.20,SE,140,1.0,1.0,70,0.00,,,0.00,Wunderground v.1.12,2013-04-07 13:30:00,
2013-04-07 09:40:00,50.8,41.0,30.20,East,85,1.0,2.0,69,0.00,,,0.00,Wunderground v.1.12,2013-04-07 13:40:00,
2013-04-07 09:50:00,51.3,40.3,30.20,South,180,2.0,2.0,66,0.00,,,0.00,Wunderground v.1.12,2013-04-07 13:50:00,
2013-04-07 10:00:00,51.4,41.2,30.19,SE,133,2.0,2.0,68,0.00,,,0.00,Wunderground v.1.12,2013-04-07 14:00:00,
2013-04-07 10:10:00,51.6,41.0,30.19,SSE,157,2.0,2.0,67,0.00,,,0.00,Wunderground v.1.12,2013-04-07 14:10:00,
2013-04-07 10:20:00,52.8,41.7,30.19,SSE,148,1.0,3.0,66,0.00,,,0.00,Wunderground v.1.12,2013-04-07 14:20:00,
2013-04-07 10:30:00,52.5,42.2,30.18,North,11,2.0,2.0,68,0.00,,,0.00,Wunderground v.1.12,2013-04-07 14:30:00,
2013-04-07 10:40:00,53.3,42.6,30.17,SE,130,2.0,2.0,67,0.00,,,0.00,Wunderground v.1.12,2013-04-07 14:40:00,
2013-04-07 10:50:00,53.1,43.2,30.17,SSE,148,3.0,3.0,69,0.00,,,0.00,Wunderground v.1.12,2013-04-07 14:50:00,
2013-04-07 11:00:00,53.9,43.2,30.17,South,174,2.0,5.0,67,0.00,,,0.00,Wunderground v.1.12,2013-04-07 15:00:00,
2013-04-07 11:10:00,53.5,43.6,30.16,SE,129,3.0,3.0,69,0.00,,,0.00,Wunderground v.1.12,2013-04-07 15:10:00,
2013-04-07 11:20:00,53.9,43.6,30.16,South,179,2.0,2.0,68,0.00,,,0.00,Wunderground v.1.12,2013-04-07 15:20:00,
2013-04-07 11:30:00,54.4,43.7,30.16,ESE,107,2.0,8.0,67,0.00,,,0.00,Wunderground v.1.12,2013-04-07 15:30:00,
2013-04-07 11:40:00,55.0,43.4,30.15,SSE,159,3.0,8.0,65,0.00,,,0.00,Wunderground v.1.12,2013-04-07 15:40:00,
2013-04-07 11:50:00,55.4,43.4,30.15,South,172,2.0,2.0,64,0.00,,,0.00,Wunderground v.1.12,2013-04-07 15:50:00,
2013-04-07 12:00:00,55.7,42.9,30.14,ESE,114,3.0,8.0,62,0.00,,,0.00,Wunderground v.1.12,2013-04-07 16:00:00,
2013-04-07 12:10:00,56.0,44.0,30.13,SE,134,3.0,8.0,64,0.00,,,0.00,Wunderground v.1.12,2013-04-07 16:10:00,
2013-04-07 12:20:00,56.2,42.9,30.13,SSE,165,3.0,3.0,61,0.00,,,0.00,Wunderground v.1.12,2013-04-07 16:20:00,
2013-04-07 12:30:00,56.2,42.9,30.12,SE,128,3.0,3.0,61,0.00,,,0.00,Wunderground v.1.12,2013-04-07 16:30:00,
2013-04-07 12:40:00,55.3,42.5,30.12,SE,138,5.0,5.0,62,0.00,,,0.00,Wunderground v.1.12,2013-04-07 16:40:00,
2013-04-07 12:50:00,55.6,42.8,30.12,ESE,106,3.0,8.0,62,0.00,,,0.00,Wunderground v.1.12,2013-04-07 16:50:00,
2013-04-07 13:00:00,55.7,42.9,30.11,SSE,159,4.0,8.0,62,0.00,,,0.00,Wunderground v.1.12,2013-04-07 17:00:00,
2013-04-07 13:10:00,56.0,43.2,30.10,SSW,200,4.0,4.0,62,0.00,,,0.00,Wunderground v.1.12,2013-04-07 17:10:00,
2013-04-07 13:20:00,56.6,43.3,30.10,SE,140,4.0,4.0,61,0.00,,,0.00,Wunderground v.1.12,2013-04-07 17:20:00,
2013-04-07 13:30:00,56.7,43.4,30.08,SE,133,4.0,8.0,61,0.00,,,0.00,Wunderground v.1.12,2013-04-07 17:30:00,
2013-04-07 13:40:00,56.9,43.2,30.08,SSE,161,3.0,3.0,60,0.00,,,0.00,Wunderground v.1.12,2013-04-07 17:40:00,
2013-04-07 13:50:00,56.7,43.4,30.08,SE,146,3.0,3.0,61,0.00,,,0.00,Wunderground v.1.12,2013-04-07 17:50:00,
2013-04-07 14:00:00,57.3,44.8,30.07,SSE,166,2.0,8.0,63,0.00,,,0.00,Wunderground v.1.12,2013-04-07 18:00:00,
2013-04-07 14:10:00,57.5,44.6,30.06,SE,141,3.0,8.0,62,0.00,,,0.00,Wunderground v.1.12,2013-04-07 18:10:00,
2013-04-07 14:20:00,58.0,45.0,30.06,South,185,2.0,2.0,62,0.00,,,0.00,Wunderground v.1.12,2013-04-07 18:20:00,
2013-04-07 14:30:00,57.2,43.9,30.05,SE,134,4.0,8.0,61,0.00,,,0.00,Wunderground v.1.12,2013-04-07 18:30:00,
2013-04-07 14:40:00,57.5,44.1,30.05,SSE,165,2.0,2.0,61,0.00,,,0.00,Wunderground v.1.12,2013-04-07 18:40:00,
2013-04-07 14:50:00,58.6,44.3,30.05,South,172,2.0,2.0,59,0.00,,,0.00,Wunderground v.1.12,2013-04-07 18:50:00,
2013-04-07 15:00:00,58.7,44.4,30.04,South,185,3.0,8.0,59,0.00,,,0.00,Wunderground v.1.12,2013-04-07 19:00:00,
2013-04-07 15:10:00,58.3,43.6,30.04,SE,139,4.0,4.0,58,0.00,,,0.00,Wunderground v.1.12,2013-04-07 19:10:00,
2013-04-07 15:20:00,59.0,44.7,30.04,SE,138,2.0,2.0,59,0.00,,,0.00,Wunderground v.1.12,2013-04-07 19:20:00,
2013-04-07 15:30:00,59.5,44.2,30.02,South,186,3.0,8.0,57,0.00,,,0.00,Wunderground v.1.12,2013-04-07 19:30:00,
2013-04-07 15:40:00,59.5,44.2,30.01,ESE,116,3.0,8.0,57,0.00,,,0.00,Wunderground v.1.12,2013-04-07 19:40:00,
2013-04-07 15:50:00,59.5,44.7,30.01,ESE,123,3.0,8.0,58,0.00,,,0.00,Wunderground v.1.12,2013-04-07 19:50:00,
2013-04-07 16:10:00,59.8,44.1,29.99,East,81,2.0,10.0,56,0.00,,,0.00,Wunderground v.1.12,2013-04-07 20:10:00,
2013-04-07 16:20:00,59.2,44.9,29.99,SSE,159,3.0,3.0,59,0.00,,,0.00,Wunderground v.1.12,2013-04-07 20:20:00,
2013-04-07 16:30:00,59.8,44.1,29.98,SSW,200,2.0,2.0,56,0.00,,,0.00,Wunderground v.1.12,2013-04-07 20:30:00,
2013-04-07 16:40:00,58.9,44.6,29.98,SSE,159,3.0,3.0,59,0.00,,,0.00,Wunderground v.1.12,2013-04-07 20:40:00,
2013-04-07 16:50:00,58.6,44.8,29.98,SSE,160,3.0,10.0,60,0.00,,,0.00,Wunderground v.1.12,2013-04-07 20:50:00,
2013-04-07 17:00:00,59.0,44.7,29.98,SSE,163,3.0,10.0,59,0.00,,,0.00,Wunderground v.1.12,2013-04-07 21:00:00,
2013-04-07 17:10:00,59.6,44.8,29.98,SSE,159,3.0,3.0,58,0.00,,,0.00,Wunderground v.1.12,2013-04-07 21:10:00,
2013-04-07 17:20:00,59.3,45.0,29.98,SSE,156,3.0,10.0,59,0.00,,,0.00,Wunderground v.1.12,2013-04-07 21:20:00,
2013-04-07 17:30:00,58.7,44.8,29.97,SE,139,4.0,4.0,60,0.00,,,0.00,Wunderground v.1.12,2013-04-07 21:30:00,
2013-04-07 17:40:00,58.7,44.8,29.98,SSE,148,3.0,10.0,60,0.00,,,0.00,Wunderground v.1.12,2013-04-07 21:40:00,
2013-04-07 17:50:00,59.0,45.1,29.98,South,190,2.0,10.0,60,0.00,,,0.00,Wunderground v.1.12,2013-04-07 21:50:00,
2013-04-07 18:00:00,59.0,45.1,29.98,South,178,1.0,1.0,60,0.00,,,0.00,Wunderground v.1.12,2013-04-07 22:00:00,
2013-04-07 18:10:00,58.0,45.0,29.97,SSE,168,2.0,2.0,62,0.00,,,0.00,Wunderground v.1.12,2013-04-07 22:10:00,
2013-04-07 18:20:00,56.9,45.3,29.97,SE,128,2.0,2.0,65,0.00,,,0.00,Wunderground v.1.12,2013-04-07 22:20:00,
2013-04-07 18:30:00,56.0,45.2,29.97,South,176,1.0,1.0,67,0.00,,,0.00,Wunderground v.1.12,2013-04-07 22:30:00,
2013-04-07 18:40:00,55.6,44.8,29.97,SE,131,1.0,10.0,67,0.00,,,0.00,Wunderground v.1.12,2013-04-07 22:40:00,
2013-04-07 18:50:00,55.3,44.9,29.97,SE,146,2.0,2.0,68,0.00,,,0.00,Wunderground v.1.12,2013-04-07 22:50:00,
2013-04-07 19:00:00,55.0,45.0,29.97,SSE,161,1.0,1.0,69,0.00,,,0.00,Wunderground v.1.12,2013-04-07 23:00:00,
2013-04-07 19:10:00,54.8,44.8,29.97,South,169,1.0,1.0,69,0.00,,,0.00,Wunderground v.1.12,2013-04-07 23:10:00,
2013-04-07 19:20:00,54.8,44.4,29.97,ESE,114,1.0,1.0,68,0.00,,,0.00,Wunderground v.1.12,2013-04-07 23:20:00,
2013-04-07 19:30:00,54.8,44.4,29.96,ESE,115,1.0,1.0,68,0.00,,,0.00,Wunderground v.1.12,2013-04-07 23:30:00,
2013-04-07 19:40:00,54.7,44.7,29.96,SSE,153,1.0,1.0,69,0.00,,,0.00,Wunderground v.1.12,2013-04-07 23:40:00,
2013-04-07 19:50:00,54.2,45.0,29.96,SSE,168,1.0,1.0,71,0.00,,,0.00,Wunderground v.1.12,2013-04-07 23:50:00,
2013-04-07 20:00:00,53.9,45.1,29.96,SE,142,1.0,1.0,72,0.00,,,0.00,Wunderground v.1.12,2013-04-08 00:00:00,
2013-04-07 20:10:00,53.6,44.8,29.96,South,175,0.0,6.0,72,0.00,,,0.00,Wunderground v.1.12,2013-04-08 00:10:00,
2013-04-07 20:20:00,53.6,45.2,29.96,SSE,150,1.0,1.0,73,0.00,,,0.00,Wunderground v.1.12,2013-04-08 00:20:00,
2013-04-07 20:40:00,53.2,45.1,29.97,SE,139,2.0,2.0,74,0.00,,,0.00,Wunderground v.1.12,2013-04-08 00:40:00,
2013-04-07 20:50:00,53.1,45.0,29.97,South,171,1.0,1.0,74,0.00,,,0.00,Wunderground v.1.12,2013-04-08 00:50:00,
2013-04-07 21:00:00,53.1,45.4,29.97,SE,142,1.0,1.0,75,0.00,,,0.00,Wunderground v.1.12,2013-04-08 01:00:00,
2013-04-07 21:10:00,52.9,45.2,29.97,SE,142,0.0,6.0,75,0.00,,,0.00,Wunderground v.1.12,2013-04-08 01:10:00,
2013-04-07 21:30:00,52.3,45.0,29.97,SE,142,0.0,6.0,76,0.00,,,0.00,Wunderground v.1.12,2013-04-08 01:30:00,
2013-04-07 21:40:00,52.2,45.2,29.98,SE,142,0.0,6.0,77,0.00,,,0.00,Wunderground v.1.12,2013-04-08 01:40:00,
2013-04-07 21:50:00,51.9,44.9,29.98,SE,142,0.0,6.0,77,0.00,,,0.00,Wunderground v.1.12,2013-04-08 01:50:00,
2013-04-07 22:20:00,51.3,45.0,29.97,SE,142,0.0,6.0,79,0.00,,,0.00,Wunderground v.1.12,2013-04-08 02:20:00,
2013-04-07 22:30:00,51.1,44.8,29.97,SE,142,0.0,6.0,79,0.00,,,0.00,Wunderground v.1.12,2013-04-08 02:30:00,
2013-04-07 23:00:00,49.6,43.7,29.97,SE,142,0.0,6.0,80,0.00,,,0.00,Wunderground v.1.12,2013-04-08 03:00:00,
2013-04-07 23:10:00,49.1,43.5,29.97,SE,142,0.0,6.0,81,0.00,,,0.00,Wunderground v.1.12,2013-04-08 03:10:00,
2013-04-07 23:20:00,48.6,43.4,29.97,SE,142,0.0,6.0,82,0.00,,,0.00,Wunderground v.1.12,2013-04-08 03:20:00,
2013-04-07 23:30:00,48.3,43.4,29.97,SE,142,0.0,6.0,83,0.00,,,0.00,Wunderground v.1.12,2013-04-08 03:30:00,
2013-04-07 23:40:00,48.0,43.4,29.97,SE,142,0.0,6.0,84,0.00,,,0.00,Wunderground v.1.12,2013-04-08 03:40:00,
2013-04-07 23:50:00,48.2,43.9,29.97,SE,142,0.0,6.0,85,0.00,,,0.00,Wunderground v.1.12,2013-04-08 03:50:00,